createdAt,value
2019-02-21T00:00:01.562Z,14.00
2019-02-21T00:01:11.135Z,13.45
2019-02-21T00:02:16.446Z,12.50
2019-02-21T00:03:20.771Z,13.43
2019-02-21T00:04:23.281Z,14.05
2019-02-21T00:05:26.127Z,13.75
2019-02-21T00:06:28.808Z,12.25
2019-02-21T00:07:31.821Z,12.47
2019-02-21T00:08:34.644Z,13.38
2019-02-21T00:09:37.379Z,13.48
2019-02-21T00:10:40.130Z,13.58
2019-02-21T00:11:42.748Z,11.97
2019-02-21T00:12:47.271Z,13.48
2019-02-21T00:13:49.896Z,12.63
2019-02-21T00:14:52.546Z,12.47
2019-02-21T00:15:56.884Z,12.90
2019-02-21T00:16:59.522Z,12.45
2019-02-21T00:18:02.239Z,12.78
2019-02-21T00:19:04.827Z,13.13
2019-02-21T00:20:07.835Z,12.15
2019-02-21T00:21:10.679Z,12.47
2019-02-21T00:22:15.299Z,12.98
2019-02-21T00:23:20.843Z,13.40
2019-02-21T00:24:23.402Z,13.48
2019-02-21T00:25:26.197Z,12.18
2019-02-21T00:26:28.733Z,12.70
2019-02-21T00:27:31.275Z,13.03
2019-02-21T00:28:34.121Z,13.15
2019-02-21T00:29:38.409Z,13.18
2019-02-21T00:30:40.949Z,13.00
2019-02-21T00:31:43.731Z,12.58
2019-02-21T00:32:46.360Z,12.37
2019-02-21T00:33:50.955Z,12.47
2019-02-21T00:34:53.486Z,13.10
2019-02-21T00:35:56.045Z,13.45
2019-02-21T00:36:59.038Z,12.90
2019-02-21T00:38:03.562Z,13.18
2019-02-21T00:39:06.619Z,12.93
2019-02-21T00:40:09.426Z,12.30
2019-02-21T00:41:11.955Z,12.55
2019-02-21T00:42:14.609Z,12.85
2019-02-21T00:43:17.398Z,12.30
2019-02-21T00:44:20.040Z,12.88
2019-02-21T00:45:22.693Z,12.65
2019-02-21T00:46:25.466Z,13.32
2019-02-21T00:47:28.097Z,12.73
2019-02-21T00:48:30.833Z,13.32
2019-02-21T00:49:33.516Z,12.28
2019-02-21T00:50:36.250Z,13.18
2019-02-21T00:51:38.766Z,13.03
2019-02-21T00:52:41.500Z,12.78
2019-02-21T00:53:44.095Z,13.15
2019-02-21T00:54:46.649Z,12.50
2019-02-21T00:55:49.400Z,12.58
2019-02-21T00:56:52.054Z,12.07
2019-02-21T00:57:54.594Z,12.55
2019-02-21T00:58:57.123Z,12.58
2019-02-21T00:59:59.785Z,12.18
2019-02-21T01:01:02.300Z,13.13
2019-02-21T01:02:05.015Z,12.37
2019-02-21T01:03:07.538Z,13.45
2019-02-21T01:04:10.078Z,12.88
2019-02-21T01:05:13.101Z,12.15
2019-02-21T01:06:15.841Z,13.08
2019-02-21T01:07:20.690Z,13.88
2019-02-21T01:08:24.107Z,12.75
2019-02-21T01:09:27.678Z,13.58
2019-02-21T01:10:30.669Z,12.70
2019-02-21T01:11:34.433Z,11.97
2019-02-21T01:12:37.844Z,13.28
2019-02-21T01:13:41.149Z,13.43
2019-02-21T01:14:44.564Z,12.80
2019-02-21T01:15:47.782Z,12.10
2019-02-21T01:16:51.686Z,12.63
2019-02-21T01:17:57.060Z,14.03
2019-02-21T01:19:00.194Z,13.43
2019-02-21T01:20:03.728Z,12.82
2019-02-21T01:21:07.059Z,12.50
2019-02-21T01:22:11.583Z,13.18
2019-02-21T01:23:14.895Z,12.70
2019-02-21T01:24:17.575Z,13.18
2019-02-21T01:25:20.438Z,13.78
2019-02-21T01:26:23.356Z,14.38
2019-02-21T01:27:26.925Z,13.00
2019-02-21T01:28:31.482Z,12.88
2019-02-21T01:29:36.763Z,13.65
2019-02-21T01:30:40.005Z,14.18
2019-02-21T01:31:43.377Z,12.95
2019-02-21T01:32:47.988Z,13.22
2019-02-21T01:33:50.751Z,13.98
2019-02-21T01:34:53.719Z,13.72
2019-02-21T01:35:56.721Z,12.47
2019-02-21T01:36:59.354Z,13.25
2019-02-21T01:38:02.228Z,14.15
2019-02-21T01:39:06.153Z,13.30
2019-02-21T01:40:09.005Z,13.83
2019-02-21T01:41:11.547Z,13.70
2019-02-21T01:42:14.264Z,13.72
2019-02-21T01:43:16.779Z,13.98
2019-02-21T01:44:19.321Z,13.65
2019-02-21T01:45:22.090Z,13.32
2019-02-21T01:46:24.893Z,12.65
2019-02-21T01:47:27.647Z,13.68
2019-02-21T01:48:30.287Z,11.73
2019-02-21T01:49:32.931Z,13.38
2019-02-21T01:50:35.585Z,13.28
2019-02-21T01:51:40.038Z,13.32
2019-02-21T01:52:42.760Z,13.70
2019-02-21T01:53:45.470Z,13.55
2019-02-21T01:54:48.122Z,13.68
2019-02-21T01:55:50.845Z,13.62
2019-02-21T01:56:53.511Z,12.68
2019-02-21T01:57:56.101Z,13.50
2019-02-21T01:58:59.024Z,13.05
2019-02-21T02:00:01.682Z,13.22
2019-02-21T02:01:08.614Z,13.35
2019-02-21T02:02:10.058Z,12.90
2019-02-21T02:03:12.599Z,12.58
2019-02-21T02:04:15.195Z,14.15
2019-02-21T02:05:17.818Z,12.63
2019-02-21T02:06:21.646Z,13.15
2019-02-21T02:07:24.760Z,13.45
2019-02-21T02:08:27.293Z,12.47
2019-02-21T02:09:29.827Z,12.90
2019-02-21T02:10:32.648Z,13.35
2019-02-21T02:11:36.586Z,13.68
2019-02-21T02:12:40.332Z,12.93
2019-02-21T02:13:42.846Z,13.13
2019-02-21T02:14:45.758Z,14.20
2019-02-21T02:15:48.269Z,12.82
2019-02-21T02:16:50.855Z,12.75
2019-02-21T02:17:53.385Z,13.65
2019-02-21T02:18:56.047Z,13.70
2019-02-21T02:19:58.831Z,14.30
2019-02-21T02:21:03.650Z,14.18
2019-02-21T02:22:06.422Z,13.70
2019-02-21T02:23:09.147Z,14.53
2019-02-21T02:24:11.676Z,13.53
2019-02-21T02:25:14.598Z,14.28
2019-02-21T02:26:17.282Z,14.07
2019-02-21T02:27:19.879Z,13.60
2019-02-21T02:28:24.342Z,13.78
2019-02-21T02:29:28.757Z,14.55
2019-02-21T02:30:31.268Z,13.70
2019-02-21T02:31:34.115Z,14.55
2019-02-21T02:32:36.871Z,14.35
2019-02-21T02:33:39.786Z,15.63
2019-02-21T02:34:42.503Z,15.48
2019-02-21T02:35:45.137Z,15.83
2019-02-21T02:36:47.842Z,15.03
2019-02-21T02:37:50.501Z,14.63
2019-02-21T02:38:54.842Z,15.45
2019-02-21T02:39:57.503Z,15.40
2019-02-21T02:41:00.113Z,15.85
2019-02-21T02:42:02.661Z,15.60
2019-02-21T02:43:05.496Z,15.18
2019-02-21T02:44:09.806Z,14.53
2019-02-21T02:45:12.455Z,15.93
2019-02-21T02:46:14.989Z,15.65
2019-02-21T02:47:17.517Z,15.50
2019-02-21T02:48:21.217Z,14.95
2019-02-21T02:49:23.975Z,15.80
2019-02-21T02:50:26.495Z,16.45
2019-02-21T02:51:29.247Z,16.52
2019-02-21T02:52:31.873Z,15.98
2019-02-21T02:53:34.413Z,15.45
2019-02-21T02:54:37.154Z,15.32
2019-02-21T02:55:40.114Z,16.60
2019-02-21T02:56:42.684Z,16.27
2019-02-21T02:57:45.716Z,16.07
2019-02-21T02:58:50.071Z,16.17
2019-02-21T02:59:53.711Z,15.85
2019-02-21T03:00:56.575Z,14.45
2019-02-21T03:01:59.099Z,16.42
2019-02-21T03:03:01.770Z,14.95
2019-02-21T03:04:04.377Z,16.27
2019-02-21T03:05:07.280Z,15.50
2019-02-21T03:06:09.883Z,15.68
2019-02-21T03:07:13.095Z,17.25
2019-02-21T03:08:15.631Z,14.93
2019-02-21T03:09:18.401Z,15.60
2019-02-21T03:10:20.951Z,15.40
2019-02-21T03:11:23.582Z,15.75
2019-02-21T03:12:26.346Z,15.38
2019-02-21T03:13:29.002Z,15.63
2019-02-21T03:14:31.737Z,16.05
2019-02-21T03:15:34.288Z,15.38
2019-02-21T03:16:37.023Z,16.30
2019-02-21T03:17:39.560Z,15.78
2019-02-21T03:18:42.334Z,15.13
2019-02-21T03:19:44.971Z,16.17
2019-02-21T03:20:47.684Z,16.50
2019-02-21T03:21:50.422Z,15.43
2019-02-21T03:22:53.064Z,16.00
2019-02-21T03:23:55.691Z,15.68
2019-02-21T03:24:58.339Z,15.40
2019-02-21T03:26:01.213Z,15.28
2019-02-21T03:27:03.995Z,16.05
2019-02-21T03:28:06.688Z,15.48
2019-02-21T03:29:09.224Z,15.18
2019-02-21T03:30:12.842Z,15.65
2019-02-21T03:31:15.722Z,16.00
2019-02-21T03:32:18.493Z,14.83
2019-02-21T03:33:21.212Z,16.25
2019-02-21T03:34:23.861Z,16.82
2019-02-21T03:35:26.471Z,15.28
2019-02-21T03:36:29.001Z,14.60
2019-02-21T03:37:31.754Z,15.50
2019-02-21T03:38:35.364Z,15.18
2019-02-21T03:39:38.409Z,14.50
2019-02-21T03:40:41.045Z,16.12
2019-02-21T03:41:43.709Z,15.93
2019-02-21T03:42:46.327Z,15.38
2019-02-21T03:43:49.067Z,14.78
2019-02-21T03:44:51.676Z,14.75
2019-02-21T03:45:54.202Z,15.70
2019-02-21T03:46:56.861Z,14.43
2019-02-21T03:47:59.410Z,15.43
2019-02-21T03:49:01.975Z,14.20
2019-02-21T03:50:04.959Z,14.80
2019-02-21T03:51:07.659Z,14.18
2019-02-21T03:52:10.173Z,14.95
2019-02-21T03:53:12.689Z,14.87
2019-02-21T03:54:15.320Z,14.47
2019-02-21T03:55:17.851Z,14.05
2019-02-21T03:56:20.440Z,14.07
2019-02-21T03:57:23.254Z,14.18
2019-02-21T03:58:25.900Z,13.80
2019-02-21T03:59:28.417Z,13.78
2019-02-21T04:00:31.126Z,14.40
2019-02-21T04:01:33.723Z,13.95
2019-02-21T04:02:36.546Z,14.07
2019-02-21T04:03:39.067Z,13.60
2019-02-21T04:04:41.634Z,14.83
2019-02-21T04:05:44.298Z,14.07
2019-02-21T04:06:47.224Z,13.55
2019-02-21T04:07:50.053Z,14.63
2019-02-21T04:08:52.699Z,13.80
2019-02-21T04:09:55.406Z,13.35
2019-02-21T04:10:57.968Z,14.18
2019-02-21T04:12:00.670Z,13.55
2019-02-21T04:13:03.603Z,13.55
2019-02-21T04:14:06.147Z,13.25
2019-02-21T04:15:10.592Z,14.07
2019-02-21T04:16:15.204Z,14.85
2019-02-21T04:17:17.731Z,14.58
2019-02-21T04:18:20.400Z,14.25
2019-02-21T04:19:22.935Z,13.78
2019-02-21T04:20:25.468Z,13.40
2019-02-21T04:21:27.996Z,14.20
2019-02-21T04:22:30.591Z,14.00
2019-02-21T04:23:33.157Z,13.45
2019-02-21T04:24:35.736Z,13.25
2019-02-21T04:25:38.319Z,13.90
2019-02-21T04:26:40.883Z,13.18
2019-02-21T04:27:43.499Z,13.08
2019-02-21T04:28:46.319Z,13.05
2019-02-21T04:29:49.071Z,12.88
2019-02-21T04:30:51.785Z,12.28
2019-02-21T04:31:54.437Z,13.48
2019-02-21T04:32:57.417Z,13.20
2019-02-21T04:34:00.055Z,12.60
2019-02-21T04:35:02.725Z,12.95
2019-02-21T04:36:05.607Z,12.13
2019-02-21T04:37:10.188Z,13.10
2019-02-21T04:38:13.174Z,13.00
2019-02-21T04:39:15.799Z,13.25
2019-02-21T04:40:18.528Z,13.32
2019-02-21T04:41:21.374Z,13.58
2019-02-21T04:42:24.010Z,13.32
2019-02-21T04:43:26.854Z,13.53
2019-02-21T04:44:29.615Z,13.30
2019-02-21T04:45:32.260Z,13.15
2019-02-21T04:46:34.785Z,14.30
2019-02-21T04:47:37.312Z,13.22
2019-02-21T04:48:40.042Z,12.93
2019-02-21T04:49:42.565Z,12.65
2019-02-21T04:50:47.330Z,13.50
2019-02-21T04:51:49.870Z,12.82
2019-02-21T04:52:53.449Z,13.93
2019-02-21T04:53:57.845Z,12.98
2019-02-21T04:55:00.587Z,14.03
2019-02-21T04:56:04.225Z,13.50
2019-02-21T04:57:07.012Z,14.15
2019-02-21T04:58:09.624Z,13.72
2019-02-21T04:59:12.350Z,13.83
2019-02-21T05:00:14.897Z,13.90
2019-02-21T05:01:17.437Z,12.68
2019-02-21T05:02:28.525Z,13.40
2019-02-21T05:03:24.636Z,13.55
2019-02-21T05:04:27.225Z,13.98
2019-02-21T05:05:29.837Z,13.58
2019-02-21T05:06:32.361Z,13.40
2019-02-21T05:07:35.183Z,14.33
2019-02-21T05:08:37.810Z,14.00
2019-02-21T05:09:40.422Z,14.28
2019-02-21T05:10:43.008Z,13.83
2019-02-21T05:11:45.770Z,13.35
2019-02-21T05:12:48.638Z,14.58
2019-02-21T05:13:51.286Z,14.43
2019-02-21T05:14:53.851Z,14.55
2019-02-21T05:15:56.402Z,14.78
2019-02-21T05:17:00.674Z,14.85
2019-02-21T05:18:03.508Z,14.58
2019-02-21T05:19:06.139Z,15.32
2019-02-21T05:20:08.806Z,14.73
2019-02-21T05:21:11.377Z,15.05
2019-02-21T05:22:14.013Z,15.68
2019-02-21T05:23:16.750Z,14.73
2019-02-21T05:24:19.692Z,15.90
2019-02-21T05:25:22.305Z,14.47
2019-02-21T05:26:30.118Z,14.58
2019-02-21T05:27:35.179Z,15.95
2019-02-21T05:28:37.714Z,15.15
2019-02-21T05:29:40.346Z,15.72
2019-02-21T05:30:43.043Z,16.45
2019-02-21T05:31:54.669Z,15.90
2019-02-21T05:33:19.859Z,16.27
2019-02-21T05:34:36.685Z,15.50
2019-02-21T05:36:11.021Z,17.52
2019-02-21T05:37:34.645Z,16.50
2019-02-21T05:38:51.572Z,16.17
2019-02-21T05:40:28.345Z,16.97
2019-02-21T05:41:38.470Z,16.85
2019-02-21T05:43:03.409Z,17.65
2019-02-21T05:44:24.396Z,17.60
2019-02-21T05:45:41.787Z,17.87
2019-02-21T05:46:58.203Z,18.57
2019-02-21T05:48:13.952Z,17.73
2019-02-21T05:49:25.834Z,18.17
2019-02-21T05:50:57.030Z,17.98
2019-02-21T05:52:10.723Z,18.10
2019-02-21T05:53:32.671Z,18.65
2019-02-21T05:54:57.586Z,18.57
2019-02-21T05:56:19.728Z,19.27
2019-02-21T05:57:39.667Z,19.90
2019-02-21T05:59:00.875Z,19.35
2019-02-21T06:00:39.255Z,20.20
2019-02-21T06:01:59.740Z,19.90
2019-02-21T06:03:10.071Z,20.52
2019-02-21T06:04:34.928Z,19.32
2019-02-21T06:05:59.893Z,19.92
2019-02-21T06:07:22.043Z,19.98
2019-02-21T06:08:44.368Z,21.02
2019-02-21T06:09:53.445Z,20.25
2019-02-21T06:11:08.381Z,21.73
2019-02-21T06:12:36.342Z,21.93
2019-02-21T06:13:58.399Z,20.32
2019-02-21T06:15:18.119Z,21.07
2019-02-21T06:16:32.668Z,21.80
2019-02-21T06:18:00.639Z,20.90
2019-02-21T06:19:20.297Z,21.15
2019-02-21T06:20:45.375Z,21.57
2019-02-21T06:22:10.111Z,21.50
2019-02-21T06:23:30.366Z,21.45
2019-02-21T06:24:38.357Z,22.32
2019-02-21T06:25:53.210Z,21.87
2019-02-21T06:27:01.827Z,21.97
2019-02-21T06:28:26.761Z,21.45
2019-02-21T06:29:34.506Z,21.40
2019-02-21T06:30:47.457Z,21.35
2019-02-21T06:31:50.245Z,20.72
2019-02-21T06:33:04.095Z,21.57
2019-02-21T06:33:57.558Z,22.32
2019-02-21T06:35:02.563Z,21.77
2019-02-21T06:36:04.845Z,21.35
2019-02-21T06:37:07.382Z,22.55
2019-02-21T06:38:09.963Z,21.42
2019-02-21T06:39:12.529Z,21.45
2019-02-21T06:40:15.088Z,22.42
2019-02-21T06:41:17.817Z,21.27
2019-02-21T06:42:20.474Z,22.17
2019-02-21T06:43:23.195Z,22.35
2019-02-21T06:44:25.949Z,22.10
2019-02-21T06:45:28.506Z,21.57
2019-02-21T06:46:31.413Z,22.22
2019-02-21T06:47:34.015Z,22.02
2019-02-21T06:48:36.878Z,21.52
2019-02-21T06:49:39.410Z,22.62
2019-02-21T06:50:41.970Z,21.45
2019-02-21T06:51:44.543Z,21.20
2019-02-21T06:52:47.064Z,22.70
2019-02-21T06:53:49.589Z,22.82
2019-02-21T06:54:52.134Z,22.52
2019-02-21T06:55:54.665Z,22.32
2019-02-21T06:56:57.299Z,22.20
2019-02-21T06:57:59.971Z,22.05
2019-02-21T06:59:02.619Z,21.68
2019-02-21T07:00:05.381Z,22.75
2019-02-21T07:01:07.918Z,22.32
2019-02-21T07:02:10.475Z,21.75
2019-02-21T07:03:15.744Z,21.65
2019-02-21T07:04:17.486Z,21.75
2019-02-21T07:05:20.017Z,19.87
2019-02-21T07:06:31.887Z,21.77
2019-02-21T07:07:28.687Z,21.10
2019-02-21T07:08:31.386Z,20.30
2019-02-21T07:09:33.905Z,20.77
2019-02-21T07:10:36.443Z,21.12
2019-02-21T07:11:39.403Z,21.15
2019-02-21T07:12:42.054Z,21.05
2019-02-21T07:13:44.609Z,20.57
2019-02-21T07:14:47.139Z,21.62
2019-02-21T07:15:49.675Z,22.07
2019-02-21T07:16:52.185Z,21.85
2019-02-21T07:17:54.813Z,22.13
2019-02-21T07:18:57.328Z,20.17
2019-02-21T07:19:59.858Z,20.70
2019-02-21T07:21:02.392Z,22.07
2019-02-21T07:22:06.301Z,21.15
2019-02-21T07:23:11.215Z,20.88
2019-02-21T07:24:13.519Z,21.37
2019-02-21T07:25:34.336Z,19.85
2019-02-21T07:26:36.898Z,20.27
2019-02-21T07:27:39.579Z,22.42
2019-02-21T07:28:42.147Z,21.62
2019-02-21T07:29:44.952Z,21.55
2019-02-21T07:30:48.607Z,21.27
2019-02-21T07:31:51.247Z,20.70
2019-02-21T07:32:53.949Z,21.42
2019-02-21T07:33:56.490Z,20.08
2019-02-21T07:34:59.206Z,20.12
2019-02-21T07:36:14.920Z,20.62
2019-02-21T07:37:19.008Z,20.27
2019-02-21T07:38:22.067Z,21.15
2019-02-21T07:39:35.301Z,20.85
2019-02-21T07:40:29.534Z,20.85
2019-02-21T07:41:32.138Z,20.15
2019-02-21T07:42:34.988Z,22.17
2019-02-21T07:43:37.914Z,20.05
2019-02-21T07:44:40.695Z,20.77
2019-02-21T07:45:43.426Z,21.42
2019-02-21T07:46:46.423Z,20.27
2019-02-21T07:47:49.302Z,19.92
2019-02-21T07:48:51.955Z,20.50
2019-02-21T07:49:54.704Z,20.12
2019-02-21T07:50:57.516Z,22.20
2019-02-21T07:52:00.053Z,20.77
2019-02-21T07:53:03.045Z,21.12
2019-02-21T07:54:05.978Z,19.92
2019-02-21T07:55:10.430Z,20.97
2019-02-21T07:56:14.867Z,20.65
2019-02-21T07:57:17.439Z,20.08
2019-02-21T07:58:20.114Z,20.43
2019-02-21T07:59:22.822Z,20.15
2019-02-21T08:00:27.185Z,19.90
2019-02-21T08:01:29.790Z,18.45
2019-02-21T08:02:32.355Z,20.37
2019-02-21T08:03:43.772Z,19.30
2019-02-21T08:04:39.485Z,19.02
2019-02-21T08:05:42.232Z,19.40
2019-02-21T08:06:44.964Z,18.90
2019-02-21T08:07:49.799Z,18.57
2019-02-21T08:08:52.377Z,18.52
2019-02-21T08:09:55.129Z,18.67
2019-02-21T08:10:57.855Z,19.30
2019-02-21T08:12:00.736Z,18.85
2019-02-21T08:13:03.268Z,18.40
2019-02-21T08:14:07.108Z,19.70
2019-02-21T08:15:11.917Z,18.73
2019-02-21T08:16:14.858Z,19.62
2019-02-21T08:17:17.416Z,19.37
2019-02-21T08:18:20.560Z,19.65
2019-02-21T08:19:25.079Z,18.85
2019-02-21T08:20:34.150Z,18.92
2019-02-21T08:21:32.484Z,18.62
2019-02-21T08:22:35.283Z,18.05
2019-02-21T08:23:37.824Z,18.32
2019-02-21T08:24:40.585Z,18.87
2019-02-21T08:25:43.130Z,19.17
2019-02-21T08:26:45.714Z,19.40
2019-02-21T08:27:48.254Z,20.30
2019-02-21T08:28:50.799Z,18.80
2019-02-21T08:29:53.469Z,19.48
2019-02-21T08:30:58.147Z,17.70
2019-02-21T08:32:00.933Z,19.23
2019-02-21T08:33:11.521Z,19.30
2019-02-21T08:35:20.489Z,18.32
2019-02-21T08:36:23.213Z,19.02
2019-02-21T08:37:25.751Z,19.40
2019-02-21T08:38:28.317Z,19.30
2019-02-21T08:39:31.030Z,20.77
2019-02-21T08:40:33.623Z,20.00
2019-02-21T08:41:36.448Z,19.37
2019-02-21T08:42:38.981Z,20.90
2019-02-21T08:43:41.472Z,20.82
2019-02-21T08:44:44.109Z,20.45
2019-02-21T08:45:46.658Z,21.68
2019-02-21T08:46:49.368Z,19.62
2019-02-21T08:47:51.951Z,21.87
2019-02-21T08:48:54.708Z,21.75
2019-02-21T08:49:59.597Z,21.57
2019-02-21T08:51:02.075Z,23.02
2019-02-21T08:52:04.766Z,22.48
2019-02-21T08:53:07.453Z,23.35
2019-02-21T08:54:11.487Z,22.60
2019-02-21T08:55:14.572Z,23.10
2019-02-21T08:56:17.288Z,21.85
2019-02-21T08:57:21.455Z,22.50
2019-02-21T08:58:24.378Z,19.10
2019-02-21T08:59:26.916Z,22.13
2019-02-21T09:00:31.538Z,19.35
2019-02-21T09:01:34.368Z,21.52
2019-02-21T09:02:36.931Z,19.55
2019-02-21T09:03:39.479Z,20.82
2019-02-21T09:04:42.079Z,21.87
2019-02-21T09:05:44.661Z,21.48
2019-02-21T09:06:48.746Z,21.33
2019-02-21T09:07:51.557Z,21.20
2019-02-21T09:08:54.489Z,22.20
2019-02-21T09:09:57.126Z,20.00
2019-02-21T09:10:59.970Z,21.05
2019-02-21T09:12:05.392Z,22.58
2019-02-21T09:13:35.530Z,21.05
2019-02-21T09:14:41.130Z,21.07
2019-02-21T09:15:46.667Z,21.77
2019-02-21T09:17:01.490Z,21.42
2019-02-21T09:18:12.353Z,19.48
2019-02-21T09:21:04.250Z,21.07
2019-02-21T09:25:16.058Z,19.05
2019-02-21T09:34:08.688Z,18.25
2019-02-21T09:35:45.163Z,20.80
2019-02-21T09:37:05.458Z,18.92
2019-02-21T09:38:09.320Z,19.65
2019-02-21T09:39:33.337Z,20.05
2019-02-21T09:40:46.353Z,19.12
2019-02-21T09:41:53.488Z,20.43
2019-02-21T09:43:07.428Z,19.42
2019-02-21T09:44:27.728Z,19.32
2019-02-21T09:45:22.280Z,19.40
2019-02-21T09:48:02.027Z,19.23
2019-02-21T09:49:04.740Z,19.15
2019-02-21T09:50:07.789Z,18.42
2019-02-21T09:51:10.354Z,17.23
2019-02-21T09:52:12.992Z,18.30
2019-02-21T09:53:15.662Z,17.50
2019-02-21T09:54:20.265Z,17.92
2019-02-21T09:55:23.010Z,17.57
2019-02-21T09:56:30.308Z,17.48
2019-02-21T09:57:30.212Z,18.02
2019-02-21T09:58:32.881Z,17.10
2019-02-21T09:59:37.424Z,17.73
2019-02-21T10:00:39.968Z,18.32
2019-02-21T10:01:42.529Z,17.17
2019-02-21T10:02:45.330Z,18.25
2019-02-21T10:03:47.990Z,16.20
2019-02-21T10:04:50.852Z,18.55
2019-02-21T10:05:53.399Z,16.82
2019-02-21T10:06:57.734Z,19.00
2019-02-21T10:08:00.516Z,17.73
2019-02-21T10:09:04.471Z,16.85
2019-02-21T10:10:10.567Z,17.55
2019-02-21T10:11:13.141Z,16.48
2019-02-21T10:12:15.691Z,19.20
2019-02-21T10:13:18.361Z,15.50
2019-02-21T10:14:21.617Z,17.55
2019-02-21T10:15:24.530Z,15.95
2019-02-21T10:16:27.405Z,17.30
2019-02-21T10:17:30.151Z,17.00
2019-02-21T10:18:32.851Z,15.10
2019-02-21T10:19:35.811Z,16.50
2019-02-21T10:20:38.801Z,17.50
2019-02-21T10:21:41.486Z,18.12
2019-02-21T10:22:44.049Z,16.87
2019-02-21T10:23:46.628Z,17.98
2019-02-21T10:24:50.193Z,18.60
2019-02-21T10:25:53.236Z,18.67
2019-02-21T10:26:56.001Z,16.60
2019-02-21T10:27:59.206Z,18.02
2019-02-21T10:29:02.153Z,18.23
2019-02-21T10:30:06.160Z,20.45
2019-02-21T10:31:08.906Z,19.62
2019-02-21T10:32:11.444Z,16.42
2019-02-21T10:33:14.225Z,18.10
2019-02-21T10:34:17.018Z,19.05
2019-02-21T10:35:19.934Z,18.32
2019-02-21T10:36:22.813Z,19.75
2019-02-21T10:37:25.592Z,21.07
2019-02-21T10:38:28.326Z,21.07
2019-02-21T10:39:30.889Z,21.90
2019-02-21T10:40:33.736Z,21.30
2019-02-21T10:41:36.291Z,19.85
2019-02-21T10:42:39.312Z,19.70
2019-02-21T10:43:41.848Z,19.95
2019-02-21T10:44:44.393Z,23.30
2019-02-21T10:45:48.176Z,22.98
2019-02-21T10:46:51.186Z,22.25
2019-02-21T10:47:53.903Z,21.73
2019-02-21T10:48:56.693Z,20.48
2019-02-21T10:49:59.239Z,20.85
2019-02-21T10:51:01.835Z,22.55
2019-02-21T10:52:06.263Z,23.20
2019-02-21T10:53:08.945Z,22.70
2019-02-21T10:54:11.725Z,22.80
2019-02-21T10:55:14.877Z,22.67
2019-02-21T10:56:17.550Z,24.12
2019-02-21T10:57:20.112Z,23.22
2019-02-21T10:58:22.801Z,21.87
2019-02-21T10:59:25.481Z,20.35
2019-02-21T11:00:28.767Z,23.38
2019-02-21T11:01:31.339Z,22.05
2019-02-21T11:02:33.884Z,24.40
2019-02-21T11:03:36.521Z,22.87
2019-02-21T11:04:42.000Z,21.85
2019-02-21T11:05:43.472Z,23.80
2019-02-21T11:06:46.008Z,23.27
2019-02-21T11:07:48.685Z,22.32
2019-02-21T11:08:51.262Z,22.40
2019-02-21T11:09:53.813Z,23.65
2019-02-21T11:10:56.411Z,22.55
2019-02-21T11:11:58.952Z,21.85
2019-02-21T11:13:01.478Z,19.07
2019-02-21T11:14:04.120Z,22.30
2019-02-21T11:15:09.501Z,23.90
2019-02-21T11:16:12.080Z,22.40
2019-02-21T11:17:14.611Z,23.77
2019-02-21T11:18:17.153Z,23.42
2019-02-21T11:19:19.727Z,24.30
2019-02-21T11:20:22.437Z,21.87
2019-02-21T11:21:25.074Z,21.55
2019-02-21T11:22:27.841Z,20.60
2019-02-21T11:23:30.447Z,24.87
2019-02-21T11:24:33.184Z,24.77
2019-02-21T11:25:35.741Z,23.83
2019-02-21T11:26:38.333Z,23.22
2019-02-21T11:27:41.186Z,22.32
2019-02-21T11:28:47.269Z,22.90
2019-02-21T11:29:50.135Z,23.25
2019-02-21T11:30:52.736Z,23.32
2019-02-21T11:31:55.412Z,24.12
2019-02-21T11:32:58.022Z,21.90
2019-02-21T11:34:00.616Z,23.65
2019-02-21T11:35:06.646Z,22.10
2019-02-21T11:36:08.334Z,25.20
2019-02-21T11:37:12.870Z,25.43
2019-02-21T11:38:15.418Z,25.92
2019-02-21T11:39:17.946Z,25.97
2019-02-21T11:40:20.654Z,26.12
2019-02-21T11:41:23.587Z,26.93
2019-02-21T11:42:28.558Z,29.10
2019-02-21T11:43:31.225Z,28.90
2019-02-21T11:44:33.992Z,29.50
2019-02-21T11:45:37.237Z,27.45
2019-02-21T11:46:40.055Z,30.02
2019-02-21T11:47:42.775Z,26.17
2019-02-21T11:48:45.466Z,29.75
2019-02-21T11:49:48.237Z,30.30
2019-02-21T11:50:51.064Z,28.67
2019-02-21T11:51:53.758Z,28.77
2019-02-21T11:52:56.833Z,28.67
2019-02-21T11:53:59.406Z,29.48
2019-02-21T11:55:01.965Z,26.62
2019-02-21T11:56:04.617Z,27.70
2019-02-21T11:57:07.187Z,23.32
2019-02-21T11:58:09.773Z,30.30
2019-02-21T11:59:12.306Z,24.25
2019-02-21T12:00:19.942Z,27.37
2019-02-21T12:01:22.473Z,21.02
2019-02-21T12:02:25.105Z,26.00
2019-02-21T12:03:27.782Z,27.50
2019-02-21T12:04:30.330Z,31.42
2019-02-21T12:05:32.916Z,31.00
2019-02-21T12:06:35.713Z,28.70
2019-02-21T12:07:38.354Z,28.15
2019-02-21T12:08:40.978Z,28.12
2019-02-21T12:09:44.000Z,27.90
2019-02-21T12:10:46.534Z,31.90
2019-02-21T12:11:49.131Z,32.08
2019-02-21T12:12:51.799Z,31.00
2019-02-21T12:13:54.406Z,32.55
2019-02-21T12:14:57.003Z,31.87
2019-02-21T12:15:59.602Z,28.95
2019-02-21T12:17:02.243Z,29.70
2019-02-21T12:18:05.096Z,30.70
2019-02-21T12:19:08.856Z,30.85
2019-02-21T12:20:11.782Z,30.65
2019-02-21T12:21:14.595Z,31.90
2019-02-21T12:22:17.146Z,30.30
2019-02-21T12:23:20.315Z,31.40
2019-02-21T12:24:23.030Z,31.23
2019-02-21T12:25:25.817Z,28.92
2019-02-21T12:26:28.563Z,28.50
2019-02-21T12:27:32.699Z,26.73
2019-02-21T12:28:35.242Z,30.02
2019-02-21T12:29:37.810Z,30.85
2019-02-21T12:30:40.771Z,29.07
2019-02-21T12:31:43.847Z,27.95
2019-02-21T12:32:46.429Z,28.23
2019-02-21T12:33:49.124Z,25.48
2019-02-21T12:34:51.664Z,30.05
2019-02-21T12:35:54.424Z,28.42
2019-02-21T12:36:57.106Z,27.10
2019-02-21T12:37:59.946Z,31.73
2019-02-21T12:39:04.097Z,27.90
2019-02-21T12:40:08.346Z,30.10
2019-02-21T12:41:10.912Z,28.17
2019-02-21T12:42:13.465Z,28.32
2019-02-21T12:43:16.190Z,27.85
2019-02-21T12:44:19.878Z,29.80
2019-02-21T12:45:22.608Z,27.70
2019-02-21T12:46:25.446Z,26.27
2019-02-21T12:47:28.115Z,25.82
2019-02-21T12:48:30.709Z,25.95
2019-02-21T12:49:33.257Z,27.10
2019-02-21T12:50:43.955Z,29.72
2019-02-21T12:51:40.331Z,27.37
2019-02-21T12:52:43.012Z,25.55
2019-02-21T12:53:45.570Z,23.85
2019-02-21T12:54:48.346Z,27.15
2019-02-21T12:55:51.179Z,27.67
2019-02-21T12:56:53.731Z,26.27
2019-02-21T12:57:56.307Z,23.65
2019-02-21T12:58:58.876Z,22.05
2019-02-21T13:00:01.424Z,25.40
2019-02-21T13:01:04.015Z,24.20
2019-02-21T13:02:06.554Z,25.50
2019-02-21T13:03:11.214Z,28.10
2019-02-21T13:04:13.900Z,23.95
2019-02-21T13:05:16.787Z,26.60
2019-02-21T13:06:19.310Z,26.62
2019-02-21T13:07:21.931Z,24.98
2019-02-21T13:08:24.701Z,25.27
2019-02-21T13:09:27.728Z,27.77
2019-02-21T13:10:30.703Z,25.82
2019-02-21T13:11:35.506Z,26.23
2019-02-21T13:12:37.847Z,27.45
2019-02-21T13:13:40.429Z,24.18
2019-02-21T13:14:43.185Z,25.17
2019-02-21T13:15:58.549Z,26.68
2019-02-21T13:17:01.080Z,26.48
2019-02-21T13:18:03.604Z,27.05
2019-02-21T13:19:06.175Z,24.45
2019-02-21T13:20:09.990Z,24.05
2019-02-21T13:21:12.788Z,24.98
2019-02-21T13:22:15.463Z,22.75
2019-02-21T13:23:18.174Z,25.32
2019-02-21T13:24:20.946Z,24.92
2019-02-21T13:25:23.587Z,23.67
2019-02-21T13:26:26.224Z,25.23
2019-02-21T13:27:28.794Z,23.80
2019-02-21T13:28:31.809Z,22.48
2019-02-21T13:29:34.406Z,22.25
2019-02-21T13:30:37.205Z,24.90
2019-02-21T13:31:40.123Z,20.50
2019-02-21T13:32:43.073Z,22.42
2019-02-21T13:33:45.664Z,22.22
2019-02-21T13:34:48.550Z,21.80
2019-02-21T13:35:53.008Z,23.15
2019-02-21T13:36:58.654Z,22.75
2019-02-21T13:38:01.670Z,23.45
2019-02-21T13:39:07.001Z,22.27
2019-02-21T13:40:11.356Z,20.30
2019-02-21T13:41:14.043Z,24.12
2019-02-21T13:42:17.314Z,20.23
2019-02-21T13:43:21.172Z,23.90
2019-02-21T13:44:24.976Z,23.52
2019-02-21T13:45:27.586Z,21.25
2019-02-21T13:46:37.373Z,22.10
2019-02-21T13:47:34.875Z,20.82
2019-02-21T13:48:37.531Z,21.07
2019-02-21T13:49:40.106Z,21.23
2019-02-21T13:50:42.747Z,23.18
2019-02-21T13:51:45.291Z,23.75
2019-02-21T13:52:47.783Z,23.92
2019-02-21T13:53:52.365Z,23.05
2019-02-21T13:54:54.916Z,21.50
2019-02-21T13:55:57.545Z,21.30
2019-02-21T13:57:00.192Z,22.80
2019-02-21T13:58:02.720Z,23.27
2019-02-21T13:59:05.261Z,24.43
2019-02-21T14:00:13.701Z,24.00
2019-02-21T14:01:16.398Z,24.92
2019-02-21T14:02:18.999Z,23.52